Decoded Metar for KANK ( in ) (IATA:) | Meteo·Mobile Aviation Weather
aviador You're here:

KANK Decoded Metar

in
Report Time2019-07-19 19:35:00
UTC Time2019-07-19 19:32:52
Flight Rules vfr VFR
Wind250° at 12 Gusting to 22 kt
W.Decomp.*RWY 24: 11.8 kt HW 2.1 kt RCW
Visibility9999 m
Phenomena:N/A
Clouds:N/A
Expected CloudBase > 14,800 ft AGL from Temp-Dew spread
CeilingNone
Temp32°C
Dew Point-5°C (9% RH)
Heat Index29.8°C
AAT25.1°C
QNH1024 hPa
Raw Report
KANK 191935Z AUTO 25012G22KT 10SM CLR 32/M05 A3025 RMK AO1
T03231047=

Extra information for KANK:More info

Social comments